sensor_id;sensor_type;location;lat;lon;timestamp;P1;durP1;ratioP1;P2;durP2;ratioP2
46721;SDS011;32455;43.430;23.136;2023-05-10T00:00:33;42.78;;;27.23;;
46721;SDS011;32455;43.430;23.136;2023-05-10T00:03:19;35.97;;;26.05;;
46721;SDS011;32455;43.430;23.136;2023-05-10T00:06:04;34.97;;;24.77;;
46721;SDS011;32455;43.430;23.136;2023-05-10T00:08:49;37.92;;;26.45;;
46721;SDS011;32455;43.430;23.136;2023-05-10T00:11:35;41.60;;;27.27;;
46721;SDS011;32455;43.430;23.136;2023-05-10T00:14:20;41.55;;;28.00;;
46721;SDS011;32455;43.430;23.136;2023-05-10T00:17:05;41.55;;;27.77;;
46721;SDS011;32455;43.430;23.136;2023-05-10T00:19:51;44.35;;;29.38;;
46721;SDS011;32455;43.430;23.136;2023-05-10T00:22:36;44.70;;;30.30;;
46721;SDS011;32455;43.430;23.136;2023-05-10T00:25:22;52.50;;;30.95;;
46721;SDS011;32455;43.430;23.136;2023-05-10T00:28:07;51.25;;;30.30;;
46721;SDS011;32455;43.430;23.136;2023-05-10T00:30:52;48.33;;;30.40;;
46721;SDS011;32455;43.430;23.136;2023-05-10T00:33:38;55.83;;;32.65;;
46721;SDS011;32455;43.430;23.136;2023-05-10T00:36:23;51.35;;;32.70;;
46721;SDS011;32455;43.430;23.136;2023-05-10T00:39:08;48.35;;;31.35;;
46721;SDS011;32455;43.430;23.136;2023-05-10T00:41:53;57.25;;;33.42;;
46721;SDS011;32455;43.430;23.136;2023-05-10T00:44:39;52.47;;;32.97;;
46721;SDS011;32455;43.430;23.136;2023-05-10T00:47:25;61.55;;;33.40;;
46721;SDS011;32455;43.430;23.136;2023-05-10T00:50:10;62.88;;;32.60;;
46721;SDS011;32455;43.430;23.136;2023-05-10T00:52:56;51.38;;;31.08;;
46721;SDS011;32455;43.430;23.136;2023-05-10T00:55:44;55.75;;;31.10;;
46721;SDS011;32455;43.430;23.136;2023-05-10T00:58:29;60.05;;;31.65;;
46721;SDS011;32455;43.430;23.136;2023-05-10T01:01:15;46.70;;;29.80;;
46721;SDS011;32455;43.430;23.136;2023-05-10T01:04:01;47.83;;;29.42;;
46721;SDS011;32455;43.430;23.136;2023-05-10T01:06:47;45.30;;;28.67;;
46721;SDS011;32455;43.430;23.136;2023-05-10T01:09:33;46.55;;;28.45;;
46721;SDS011;32455;43.430;23.136;2023-05-10T01:12:18;54.70;;;29.58;;
46721;SDS011;32455;43.430;23.136;2023-05-10T01:15:05;77.20;;;29.52;;
46721;SDS011;32455;43.430;23.136;2023-05-10T01:17:52;53.42;;;28.02;;
46721;SDS011;32455;43.430;23.136;2023-05-10T01:20:40;58.38;;;29.38;;
46721;SDS011;32455;43.430;23.136;2023-05-10T01:24:22;78.57;;;29.10;;
46721;SDS011;32455;43.430;23.136;2023-05-10T01:33:10;396.15;;;38.33;;
46721;SDS011;32455;43.430;23.136;2023-05-10T01:36:13;430.20;;;37.47;;
46721;SDS011;32455;43.430;23.136;2023-05-10T01:42:11;255.23;;;33.05;;
46721;SDS011;32455;43.430;23.136;2023-05-10T01:45:07;210.90;;;34.08;;
46721;SDS011;32455;43.430;23.136;2023-05-10T01:48:08;275.60;;;33.13;;
46721;SDS011;32455;43.430;23.136;2023-05-10T01:50:54;283.13;;;32.45;;
46721;SDS011;32455;43.430;23.136;2023-05-10T01:53:44;81.50;;;27.25;;
46721;SDS011;32455;43.430;23.136;2023-05-10T01:56:33;229.73;;;30.50;;
46721;SDS011;32455;43.430;23.136;2023-05-10T01:59:22;209.15;;;31.30;;
46721;SDS011;32455;43.430;23.136;2023-05-10T02:02:14;322.38;;;33.92;;
46721;SDS011;32455;43.430;23.136;2023-05-10T02:05:02;167.23;;;30.45;;
46721;SDS011;32455;43.430;23.136;2023-05-10T02:07:50;261.80;;;32.58;;
46721;SDS011;32455;43.430;23.136;2023-05-10T02:10:37;454.50;;;39.25;;
46721;SDS011;32455;43.430;23.136;2023-05-10T02:13:24;565.90;;;44.45;;
46721;SDS011;32455;43.430;23.136;2023-05-10T02:16:11;504.70;;;39.47;;
46721;SDS011;32455;43.430;23.136;2023-05-10T02:18:58;165.90;;;28.65;;
46721;SDS011;32455;43.430;23.136;2023-05-10T02:21:46;281.50;;;33.17;;
46721;SDS011;32455;43.430;23.136;2023-05-10T02:24:32;215.65;;;29.27;;
46721;SDS011;32455;43.430;23.136;2023-05-10T02:27:19;411.35;;;35.20;;
46721;SDS011;32455;43.430;23.136;2023-05-10T02:30:05;466.92;;;38.17;;
46721;SDS011;32455;43.430;23.136;2023-05-10T02:32:52;327.48;;;34.15;;
46721;SDS011;32455;43.430;23.136;2023-05-10T02:35:38;89.63;;;25.88;;
46721;SDS011;32455;43.430;23.136;2023-05-10T02:38:24;334.50;;;33.55;;
46721;SDS011;32455;43.430;23.136;2023-05-10T02:41:11;312.83;;;33.88;;
46721;SDS011;32455;43.430;23.136;2023-05-10T02:43:59;454.25;;;40.13;;
46721;SDS011;32455;43.430;23.136;2023-05-10T02:46:47;385.73;;;35.80;;
46721;SDS011;32455;43.430;23.136;2023-05-10T02:49:33;414.08;;;35.22;;
46721;SDS011;32455;43.430;23.136;2023-05-10T02:52:21;351.02;;;30.70;;
46721;SDS011;32455;43.430;23.136;2023-05-10T02:55:11;273.05;;;32.42;;
46721;SDS011;32455;43.430;23.136;2023-05-10T02:58:00;498.23;;;35.85;;
46721;SDS011;32455;43.430;23.136;2023-05-10T03:00:46;830.35;;;53.70;;
46721;SDS011;32455;43.430;23.136;2023-05-10T03:03:31;399.65;;;33.17;;
46721;SDS011;32455;43.430;23.136;2023-05-10T03:06:16;378.77;;;35.15;;
46721;SDS011;32455;43.430;23.136;2023-05-10T03:09:03;717.20;;;49.58;;
46721;SDS011;32455;43.430;23.136;2023-05-10T03:18:06;547.00;;;41.78;;
46721;SDS011;32455;43.430;23.136;2023-05-10T03:23:48;400.90;;;33.00;;
46721;SDS011;32455;43.430;23.136;2023-05-10T03:26:43;700.10;;;50.90;;
46721;SDS011;32455;43.430;23.136;2023-05-10T03:29:30;732.95;;;50.22;;
46721;SDS011;32455;43.430;23.136;2023-05-10T03:32:17;430.20;;;34.45;;
46721;SDS011;32455;43.430;23.136;2023-05-10T03:35:09;672.67;;;48.05;;
46721;SDS011;32455;43.430;23.136;2023-05-10T03:37:55;617.25;;;42.97;;
46721;SDS011;32455;43.430;23.136;2023-05-10T03:40:42;600.38;;;45.28;;
46721;SDS011;32455;43.430;23.136;2023-05-10T03:43:27;500.27;;;39.00;;
46721;SDS011;32455;43.430;23.136;2023-05-10T03:46:12;337.85;;;34.70;;
46721;SDS011;32455;43.430;23.136;2023-05-10T03:48:57;442.92;;;40.47;;
46721;SDS011;32455;43.430;23.136;2023-05-10T03:51:42;686.92;;;50.97;;
46721;SDS011;32455;43.430;23.136;2023-05-10T03:54:27;924.60;;;55.08;;
46721;SDS011;32455;43.430;23.136;2023-05-10T03:57:13;648.42;;;45.67;;
46721;SDS011;32455;43.430;23.136;2023-05-10T03:59:58;317.00;;;35.92;;
46721;SDS011;32455;43.430;23.136;2023-05-10T04:02:43;517.55;;;39.92;;
46721;SDS011;32455;43.430;23.136;2023-05-10T04:05:28;64.03;;;29.75;;
46721;SDS011;32455;43.430;23.136;2023-05-10T04:08:14;699.40;;;48.72;;
46721;SDS011;32455;43.430;23.136;2023-05-10T04:13:53;468.80;;;40.00;;
46721;SDS011;32455;43.430;23.136;2023-05-10T04:16:38;617.25;;;45.78;;
46721;SDS011;32455;43.430;23.136;2023-05-10T04:19:23;645.03;;;46.08;;
46721;SDS011;32455;43.430;23.136;2023-05-10T04:22:07;700.85;;;48.22;;
46721;SDS011;32455;43.430;23.136;2023-05-10T04:24:53;590.67;;;45.15;;
46721;SDS011;32455;43.430;23.136;2023-05-10T04:27:38;160.80;;;35.35;;
46721;SDS011;32455;43.430;23.136;2023-05-10T04:30:23;538.20;;;44.75;;
46721;SDS011;32455;43.430;23.136;2023-05-10T04:33:09;435.52;;;42.40;;
46721;SDS011;32455;43.430;23.136;2023-05-10T04:35:54;784.97;;;57.78;;
46721;SDS011;32455;43.430;23.136;2023-05-10T04:38:39;567.40;;;47.95;;
46721;SDS011;32455;43.430;23.136;2023-05-10T04:41:24;541.60;;;47.55;;
46721;SDS011;32455;43.430;23.136;2023-05-10T04:44:10;547.33;;;43.95;;
46721;SDS011;32455;43.430;23.136;2023-05-10T04:46:55;623.65;;;46.45;;
46721;SDS011;32455;43.430;23.136;2023-05-10T04:49:40;666.47;;;52.67;;
46721;SDS011;32455;43.430;23.136;2023-05-10T04:52:26;748.95;;;50.22;;
46721;SDS011;32455;43.430;23.136;2023-05-10T04:55:11;513.70;;;45.00;;
46721;SDS011;32455;43.430;23.136;2023-05-10T04:57:56;390.80;;;42.70;;
46721;SDS011;32455;43.430;23.136;2023-05-10T05:00:44;543.67;;;50.13;;
46721;SDS011;32455;43.430;23.136;2023-05-10T05:03:29;439.65;;;43.55;;
46721;SDS011;32455;43.430;23.136;2023-05-10T05:06:14;430.25;;;43.38;;
46721;SDS011;32455;43.430;23.136;2023-05-10T05:09:00;544.88;;;46.08;;
46721;SDS011;32455;43.430;23.136;2023-05-10T05:11:45;469.85;;;47.70;;
46721;SDS011;32455;43.430;23.136;2023-05-10T05:14:30;496.95;;;50.22;;
46721;SDS011;32455;43.430;23.136;2023-05-10T05:17:16;378.05;;;41.97;;
46721;SDS011;32455;43.430;23.136;2023-05-10T05:20:01;371.13;;;44.38;;
46721;SDS011;32455;43.430;23.136;2023-05-10T05:22:47;419.45;;;44.55;;
46721;SDS011;32455;43.430;23.136;2023-05-10T05:25:32;276.77;;;41.97;;
46721;SDS011;32455;43.430;23.136;2023-05-10T05:28:20;378.73;;;46.97;;
46721;SDS011;32455;43.430;23.136;2023-05-10T05:31:06;535.22;;;51.90;;
46721;SDS011;32455;43.430;23.136;2023-05-10T05:33:52;307.27;;;46.38;;
46721;SDS011;32455;43.430;23.136;2023-05-10T05:36:37;562.85;;;52.40;;
46721;SDS011;32455;43.430;23.136;2023-05-10T05:39:25;327.85;;;45.40;;
46721;SDS011;32455;43.430;23.136;2023-05-10T05:42:11;226.32;;;41.28;;
46721;SDS011;32455;43.430;23.136;2023-05-10T05:44:57;370.08;;;46.15;;
46721;SDS011;32455;43.430;23.136;2023-05-10T05:47:42;674.90;;;58.83;;
46721;SDS011;32455;43.430;23.136;2023-05-10T05:50:28;204.82;;;41.75;;
46721;SDS011;32455;43.430;23.136;2023-05-10T05:53:13;538.40;;;53.00;;
46721;SDS011;32455;43.430;23.136;2023-05-10T05:55:58;103.20;;;38.15;;
46721;SDS011;32455;43.430;23.136;2023-05-10T05:58:43;191.95;;;41.55;;
46721;SDS011;32455;43.430;23.136;2023-05-10T06:01:28;430.40;;;49.05;;
46721;SDS011;32455;43.430;23.136;2023-05-10T06:04:13;273.17;;;42.38;;
46721;SDS011;32455;43.430;23.136;2023-05-10T06:06:58;664.88;;;58.78;;
46721;SDS011;32455;43.430;23.136;2023-05-10T06:09:43;190.35;;;42.03;;
46721;SDS011;32455;43.430;23.136;2023-05-10T06:12:28;259.33;;;43.42;;
46721;SDS011;32455;43.430;23.136;2023-05-10T06:15:14;214.60;;;40.33;;
46721;SDS011;32455;43.430;23.136;2023-05-10T06:17:59;216.30;;;41.38;;
46721;SDS011;32455;43.430;23.136;2023-05-10T06:20:45;194.25;;;43.08;;
46721;SDS011;32455;43.430;23.136;2023-05-10T06:23:30;249.52;;;44.38;;
46721;SDS011;32455;43.430;23.136;2023-05-10T06:26:15;95.13;;;38.03;;
46721;SDS011;32455;43.430;23.136;2023-05-10T06:29:01;167.55;;;39.72;;
46721;SDS011;32455;43.430;23.136;2023-05-10T06:31:46;129.18;;;39.67;;
46721;SDS011;32455;43.430;23.136;2023-05-10T06:34:31;122.18;;;39.88;;
46721;SDS011;32455;43.430;23.136;2023-05-10T06:37:16;88.18;;;38.58;;
46721;SDS011;32455;43.430;23.136;2023-05-10T06:40:02;76.97;;;38.53;;
46721;SDS011;32455;43.430;23.136;2023-05-10T06:42:48;80.97;;;37.13;;
46721;SDS011;32455;43.430;23.136;2023-05-10T06:45:33;80.07;;;38.78;;
46721;SDS011;32455;43.430;23.136;2023-05-10T06:48:18;75.03;;;38.47;;
46721;SDS011;32455;43.430;23.136;2023-05-10T06:51:04;71.07;;;36.67;;
46721;SDS011;32455;43.430;23.136;2023-05-10T06:53:49;74.80;;;37.30;;
46721;SDS011;32455;43.430;23.136;2023-05-10T06:56:34;72.63;;;36.38;;
46721;SDS011;32455;43.430;23.136;2023-05-10T06:59:19;90.20;;;39.20;;
46721;SDS011;32455;43.430;23.136;2023-05-10T07:02:06;95.15;;;36.95;;
46721;SDS011;32455;43.430;23.136;2023-05-10T07:04:51;138.25;;;38.78;;
46721;SDS011;32455;43.430;23.136;2023-05-10T07:07:37;82.07;;;38.38;;
46721;SDS011;32455;43.430;23.136;2023-05-10T07:10:22;76.90;;;36.80;;
46721;SDS011;32455;43.430;23.136;2023-05-10T07:13:07;78.50;;;35.97;;
46721;SDS011;32455;43.430;23.136;2023-05-10T07:15:53;71.95;;;35.05;;
46721;SDS011;32455;43.430;23.136;2023-05-10T07:18:38;67.07;;;34.88;;
46721;SDS011;32455;43.430;23.136;2023-05-10T07:21:24;76.28;;;35.30;;
46721;SDS011;32455;43.430;23.136;2023-05-10T07:24:09;70.30;;;35.58;;
46721;SDS011;32455;43.430;23.136;2023-05-10T07:26:55;62.03;;;33.72;;
46721;SDS011;32455;43.430;23.136;2023-05-10T07:29:40;63.78;;;35.78;;
46721;SDS011;32455;43.430;23.136;2023-05-10T07:32:26;60.42;;;34.53;;
46721;SDS011;32455;43.430;23.136;2023-05-10T07:35:11;56.63;;;34.38;;
46721;SDS011;32455;43.430;23.136;2023-05-10T07:37:56;63.67;;;35.10;;
46721;SDS011;32455;43.430;23.136;2023-05-10T07:40:40;57.90;;;33.67;;
46721;SDS011;32455;43.430;23.136;2023-05-10T07:43:26;60.55;;;32.13;;
46721;SDS011;32455;43.430;23.136;2023-05-10T07:46:11;60.67;;;34.15;;
46721;SDS011;32455;43.430;23.136;2023-05-10T07:48:56;55.15;;;33.85;;
46721;SDS011;32455;43.430;23.136;2023-05-10T07:51:41;52.00;;;31.67;;
46721;SDS011;32455;43.430;23.136;2023-05-10T07:54:27;58.08;;;33.72;;
46721;SDS011;32455;43.430;23.136;2023-05-10T07:57:12;47.15;;;29.52;;
46721;SDS011;32455;43.430;23.136;2023-05-10T07:59:59;50.40;;;30.05;;
46721;SDS011;32455;43.430;23.136;2023-05-10T08:02:45;47.88;;;30.35;;
46721;SDS011;32455;43.430;23.136;2023-05-10T08:05:30;47.22;;;29.00;;
46721;SDS011;32455;43.430;23.136;2023-05-10T08:08:16;45.08;;;30.23;;
46721;SDS011;32455;43.430;23.136;2023-05-10T08:11:01;51.92;;;28.58;;
46721;SDS011;32455;43.430;23.136;2023-05-10T08:13:47;42.85;;;28.45;;
46721;SDS011;32455;43.430;23.136;2023-05-10T08:16:32;42.13;;;27.45;;
46721;SDS011;32455;43.430;23.136;2023-05-10T08:19:19;40.85;;;25.58;;
46721;SDS011;32455;43.430;23.136;2023-05-10T08:22:06;39.55;;;27.10;;
46721;SDS011;32455;43.430;23.136;2023-05-10T08:24:52;39.08;;;26.10;;
46721;SDS011;32455;43.430;23.136;2023-05-10T08:27:37;40.60;;;25.02;;
46721;SDS011;32455;43.430;23.136;2023-05-10T08:30:23;36.47;;;24.08;;
46721;SDS011;32455;43.430;23.136;2023-05-10T08:33:08;37.30;;;25.40;;
46721;SDS011;32455;43.430;23.136;2023-05-10T08:35:54;36.30;;;25.02;;
46721;SDS011;32455;43.430;23.136;2023-05-10T08:38:39;40.78;;;25.40;;
46721;SDS011;32455;43.430;23.136;2023-05-10T08:41:25;36.00;;;25.00;;
46721;SDS011;32455;43.430;23.136;2023-05-10T08:44:11;37.90;;;25.90;;
46721;SDS011;32455;43.430;23.136;2023-05-10T08:46:56;35.67;;;24.80;;
46721;SDS011;32455;43.430;23.136;2023-05-10T08:49:44;35.45;;;24.88;;
46721;SDS011;32455;43.430;23.136;2023-05-10T08:52:32;32.33;;;23.65;;
46721;SDS011;32455;43.430;23.136;2023-05-10T08:55:22;31.92;;;24.10;;
46721;SDS011;32455;43.430;23.136;2023-05-10T08:58:09;28.75;;;22.42;;
46721;SDS011;32455;43.430;23.136;2023-05-10T09:00:54;32.67;;;22.10;;
46721;SDS011;32455;43.430;23.136;2023-05-10T09:03:41;35.83;;;21.38;;
46721;SDS011;32455;43.430;23.136;2023-05-10T09:06:28;32.25;;;20.50;;
46721;SDS011;32455;43.430;23.136;2023-05-10T09:09:13;27.15;;;20.67;;
46721;SDS011;32455;43.430;23.136;2023-05-10T09:11:59;26.40;;;20.35;;
46721;SDS011;32455;43.430;23.136;2023-05-10T09:14:45;27.55;;;21.13;;
46721;SDS011;32455;43.430;23.136;2023-05-10T09:17:31;27.35;;;20.63;;
46721;SDS011;32455;43.430;23.136;2023-05-10T09:20:16;24.92;;;19.05;;
46721;SDS011;32455;43.430;23.136;2023-05-10T09:23:02;21.48;;;17.50;;
46721;SDS011;32455;43.430;23.136;2023-05-10T09:25:47;20.85;;;17.40;;
46721;SDS011;32455;43.430;23.136;2023-05-10T09:28:32;23.42;;;16.30;;
46721;SDS011;32455;43.430;23.136;2023-05-10T09:31:19;22.13;;;16.95;;
46721;SDS011;32455;43.430;23.136;2023-05-10T09:34:04;21.00;;;15.70;;
46721;SDS011;32455;43.430;23.136;2023-05-10T09:37:00;16.95;;;15.00;;
46721;SDS011;32455;43.430;23.136;2023-05-10T09:39:47;15.68;;;13.70;;
46721;SDS011;32455;43.430;23.136;2023-05-10T09:42:38;18.17;;;14.43;;
46721;SDS011;32455;43.430;23.136;2023-05-10T09:45:29;17.70;;;12.85;;
46721;SDS011;32455;43.430;23.136;2023-05-10T09:48:15;16.27;;;12.45;;
46721;SDS011;32455;43.430;23.136;2023-05-10T09:51:00;16.38;;;12.65;;
46721;SDS011;32455;43.430;23.136;2023-05-10T09:53:46;16.38;;;12.88;;
46721;SDS011;32455;43.430;23.136;2023-05-10T09:56:35;16.73;;;13.20;;
46721;SDS011;32455;43.430;23.136;2023-05-10T09:59:26;14.52;;;11.85;;
46721;SDS011;32455;43.430;23.136;2023-05-10T10:02:12;14.15;;;11.98;;
46721;SDS011;32455;43.430;23.136;2023-05-10T10:05:00;14.13;;;10.95;;
46721;SDS011;32455;43.430;23.136;2023-05-10T10:07:47;13.07;;;10.90;;
46721;SDS011;32455;43.430;23.136;2023-05-10T10:10:34;13.68;;;10.27;;
46721;SDS011;32455;43.430;23.136;2023-05-10T10:13:20;12.07;;;8.10;;
46721;SDS011;32455;43.430;23.136;2023-05-10T10:16:06;9.90;;;7.88;;
46721;SDS011;32455;43.430;23.136;2023-05-10T10:18:54;10.55;;;8.35;;
46721;SDS011;32455;43.430;23.136;2023-05-10T10:21:39;9.70;;;6.47;;
46721;SDS011;32455;43.430;23.136;2023-05-10T10:24:25;11.32;;;6.82;;
46721;SDS011;32455;43.430;23.136;2023-05-10T10:30:45;16.48;;;8.82;;
46721;SDS011;32455;43.430;23.136;2023-05-10T10:36:11;7.50;;;6.70;;
46721;SDS011;32455;43.430;23.136;2023-05-10T10:39:00;11.25;;;6.78;;
46721;SDS011;32455;43.430;23.136;2023-05-10T10:41:53;9.95;;;7.15;;
46721;SDS011;32455;43.430;23.136;2023-05-10T10:44:40;6.93;;;6.22;;
46721;SDS011;32455;43.430;23.136;2023-05-10T10:47:27;10.30;;;6.40;;
46721;SDS011;32455;43.430;23.136;2023-05-10T10:50:18;7.65;;;5.95;;
46721;SDS011;32455;43.430;23.136;2023-05-10T10:53:10;5.63;;;5.10;;
46721;SDS011;32455;43.430;23.136;2023-05-10T10:56:29;9.30;;;6.55;;
46721;SDS011;32455;43.430;23.136;2023-05-10T10:59:08;5.43;;;4.93;;
46721;SDS011;32455;43.430;23.136;2023-05-10T11:01:54;6.55;;;5.47;;
46721;SDS011;32455;43.430;23.136;2023-05-10T11:04:42;7.32;;;4.63;;
46721;SDS011;32455;43.430;23.136;2023-05-10T11:07:30;5.22;;;4.72;;
46721;SDS011;32455;43.430;23.136;2023-05-10T11:10:19;7.55;;;4.20;;
46721;SDS011;32455;43.430;23.136;2023-05-10T11:13:08;5.78;;;4.40;;
46721;SDS011;32455;43.430;23.136;2023-05-10T11:15:55;7.45;;;5.38;;
46721;SDS011;32455;43.430;23.136;2023-05-10T11:18:51;6.75;;;4.18;;
46721;SDS011;32455;43.430;23.136;2023-05-10T11:21:51;5.07;;;4.25;;
46721;SDS011;32455;43.430;23.136;2023-05-10T11:24:58;7.28;;;4.45;;
46721;SDS011;32455;43.430;23.136;2023-05-10T11:27:43;6.38;;;4.50;;
46721;SDS011;32455;43.430;23.136;2023-05-10T11:30:28;6.20;;;4.15;;
46721;SDS011;32455;43.430;23.136;2023-05-10T11:33:17;5.82;;;3.78;;
46721;SDS011;32455;43.430;23.136;2023-05-10T11:36:04;4.40;;;3.65;;
46721;SDS011;32455;43.430;23.136;2023-05-10T11:38:51;3.70;;;3.33;;
46721;SDS011;32455;43.430;23.136;2023-05-10T11:41:36;7.35;;;3.63;;
46721;SDS011;32455;43.430;23.136;2023-05-10T11:44:22;6.78;;;3.10;;
46721;SDS011;32455;43.430;23.136;2023-05-10T11:47:07;3.42;;;2.55;;
46721;SDS011;32455;43.430;23.136;2023-05-10T11:49:53;3.65;;;2.17;;
46721;SDS011;32455;43.430;23.136;2023-05-10T11:52:38;3.10;;;2.35;;
46721;SDS011;32455;43.430;23.136;2023-05-10T11:55:23;3.70;;;2.42;;
46721;SDS011;32455;43.430;23.136;2023-05-10T11:58:09;4.05;;;2.60;;
46721;SDS011;32455;43.430;23.136;2023-05-10T12:00:55;5.38;;;2.20;;
46721;SDS011;32455;43.430;23.136;2023-05-10T12:03:40;2.60;;;2.40;;
46721;SDS011;32455;43.430;23.136;2023-05-10T12:06:28;5.97;;;2.72;;
46721;SDS011;32455;43.430;23.136;2023-05-10T12:09:16;5.10;;;2.85;;
46721;SDS011;32455;43.430;23.136;2023-05-10T12:12:01;2.90;;;2.42;;
46721;SDS011;32455;43.430;23.136;2023-05-10T12:14:50;3.85;;;2.60;;
46721;SDS011;32455;43.430;23.136;2023-05-10T12:17:37;3.45;;;2.65;;
46721;SDS011;32455;43.430;23.136;2023-05-10T12:20:23;7.40;;;2.70;;
46721;SDS011;32455;43.430;23.136;2023-05-10T12:23:12;2.78;;;2.28;;
46721;SDS011;32455;43.430;23.136;2023-05-10T12:26:02;4.82;;;2.35;;
46721;SDS011;32455;43.430;23.136;2023-05-10T12:28:51;4.83;;;2.90;;
46721;SDS011;32455;43.430;23.136;2023-05-10T12:31:54;3.20;;;2.55;;
46721;SDS011;32455;43.430;23.136;2023-05-10T12:34:41;4.85;;;2.78;;
46721;SDS011;32455;43.430;23.136;2023-05-10T12:37:27;4.05;;;2.40;;
46721;SDS011;32455;43.430;23.136;2023-05-10T12:40:13;2.50;;;2.30;;
46721;SDS011;32455;43.430;23.136;2023-05-10T12:42:59;4.53;;;2.47;;
46721;SDS011;32455;43.430;23.136;2023-05-10T12:45:44;2.50;;;2.30;;
46721;SDS011;32455;43.430;23.136;2023-05-10T12:48:32;3.60;;;2.30;;
46721;SDS011;32455;43.430;23.136;2023-05-10T12:51:18;5.85;;;2.20;;
46721;SDS011;32455;43.430;23.136;2023-05-10T12:54:06;5.88;;;2.30;;
46721;SDS011;32455;43.430;23.136;2023-05-10T12:56:51;2.60;;;2.30;;
46721;SDS011;32455;43.430;23.136;2023-05-10T12:59:36;4.13;;;1.95;;
46721;SDS011;32455;43.430;23.136;2023-05-10T13:02:22;3.78;;;2.28;;
46721;SDS011;32455;43.430;23.136;2023-05-10T13:05:07;4.53;;;3.15;;
46721;SDS011;32455;43.430;23.136;2023-05-10T13:07:53;4.47;;;2.33;;
46721;SDS011;32455;43.430;23.136;2023-05-10T13:10:38;4.45;;;1.75;;
46721;SDS011;32455;43.430;23.136;2023-05-10T13:13:24;3.03;;;2.13;;
46721;SDS011;32455;43.430;23.136;2023-05-10T13:16:09;5.68;;;2.00;;
46721;SDS011;32455;43.430;23.136;2023-05-10T13:18:54;3.15;;;2.00;;
46721;SDS011;32455;43.430;23.136;2023-05-10T13:21:39;4.80;;;1.88;;
46721;SDS011;32455;43.430;23.136;2023-05-10T13:24:29;5.63;;;1.77;;
46721;SDS011;32455;43.430;23.136;2023-05-10T13:27:14;2.10;;;1.90;;
46721;SDS011;32455;43.430;23.136;2023-05-10T13:30:00;2.10;;;1.90;;
46721;SDS011;32455;43.430;23.136;2023-05-10T13:32:46;6.10;;;1.83;;
46721;SDS011;32455;43.430;23.136;2023-05-10T13:35:30;5.88;;;1.65;;
46721;SDS011;32455;43.430;23.136;2023-05-10T13:38:15;6.93;;;2.10;;
46721;SDS011;32455;43.430;23.136;2023-05-10T13:41:00;6.13;;;2.08;;
46721;SDS011;32455;43.430;23.136;2023-05-10T13:43:46;2.03;;;1.88;;
46721;SDS011;32455;43.430;23.136;2023-05-10T13:46:33;2.78;;;1.67;;
46721;SDS011;32455;43.430;23.136;2023-05-10T13:49:18;2.00;;;1.80;;
46721;SDS011;32455;43.430;23.136;2023-05-10T13:52:03;2.53;;;2.00;;
46721;SDS011;32455;43.430;23.136;2023-05-10T13:54:53;6.65;;;2.40;;
46721;SDS011;32455;43.430;23.136;2023-05-10T13:57:39;3.10;;;1.98;;
46721;SDS011;32455;43.430;23.136;2023-05-10T14:00:25;3.17;;;2.33;;
46721;SDS011;32455;43.430;23.136;2023-05-10T14:03:10;4.60;;;2.63;;
46721;SDS011;32455;43.430;23.136;2023-05-10T14:05:56;5.25;;;3.40;;
46721;SDS011;32455;43.430;23.136;2023-05-10T14:08:41;2.33;;;2.13;;
46721;SDS011;32455;43.430;23.136;2023-05-10T14:11:26;2.30;;;1.70;;
46721;SDS011;32455;43.430;23.136;2023-05-10T14:14:12;5.63;;;1.83;;
46721;SDS011;32455;43.430;23.136;2023-05-10T14:16:58;3.03;;;2.60;;
46721;SDS011;32455;43.430;23.136;2023-05-10T14:19:44;5.13;;;2.40;;
46721;SDS011;32455;43.430;23.136;2023-05-10T14:22:29;5.07;;;2.35;;
46721;SDS011;32455;43.430;23.136;2023-05-10T14:25:14;8.63;;;2.67;;
46721;SDS011;32455;43.430;23.136;2023-05-10T14:28:00;7.15;;;2.75;;
46721;SDS011;32455;43.430;23.136;2023-05-10T14:30:45;4.55;;;3.00;;
46721;SDS011;32455;43.430;23.136;2023-05-10T14:33:30;4.60;;;2.42;;
46721;SDS011;32455;43.430;23.136;2023-05-10T14:36:16;5.00;;;2.78;;
46721;SDS011;32455;43.430;23.136;2023-05-10T14:39:02;2.75;;;2.50;;
46721;SDS011;32455;43.430;23.136;2023-05-10T14:41:48;8.60;;;2.42;;
46721;SDS011;32455;43.430;23.136;2023-05-10T14:44:33;3.75;;;2.85;;
46721;SDS011;32455;43.430;23.136;2023-05-10T14:47:18;5.13;;;2.78;;
46721;SDS011;32455;43.430;23.136;2023-05-10T14:50:04;6.75;;;2.80;;
46721;SDS011;32455;43.430;23.136;2023-05-10T14:52:50;3.47;;;2.55;;
46721;SDS011;32455;43.430;23.136;2023-05-10T14:55:35;7.03;;;2.55;;
46721;SDS011;32455;43.430;23.136;2023-05-10T14:58:22;3.80;;;2.53;;
46721;SDS011;32455;43.430;23.136;2023-05-10T15:01:06;2.80;;;2.40;;
46721;SDS011;32455;43.430;23.136;2023-05-10T15:03:52;3.58;;;2.33;;
46721;SDS011;32455;43.430;23.136;2023-05-10T15:06:37;9.18;;;2.63;;
46721;SDS011;32455;43.430;23.136;2023-05-10T15:09:22;11.05;;;2.60;;
46721;SDS011;32455;43.430;23.136;2023-05-10T15:12:08;3.10;;;2.15;;
46721;SDS011;32455;43.430;23.136;2023-05-10T15:14:53;4.90;;;2.65;;
46721;SDS011;32455;43.430;23.136;2023-05-10T15:17:38;4.38;;;2.78;;
46721;SDS011;32455;43.430;23.136;2023-05-10T15:20:23;5.93;;;3.33;;
46721;SDS011;32455;43.430;23.136;2023-05-10T15:23:09;2.85;;;2.38;;
46721;SDS011;32455;43.430;23.136;2023-05-10T15:25:54;4.88;;;2.53;;
46721;SDS011;32455;43.430;23.136;2023-05-10T15:28:40;2.70;;;2.20;;
46721;SDS011;32455;43.430;23.136;2023-05-10T15:31:25;3.75;;;2.03;;
46721;SDS011;32455;43.430;23.136;2023-05-10T15:34:11;3.38;;;2.20;;
46721;SDS011;32455;43.430;23.136;2023-05-10T15:36:57;4.00;;;2.58;;
46721;SDS011;32455;43.430;23.136;2023-05-10T15:39:43;2.42;;;2.08;;
46721;SDS011;32455;43.430;23.136;2023-05-10T15:42:31;4.78;;;2.58;;
46721;SDS011;32455;43.430;23.136;2023-05-10T15:45:17;4.47;;;2.50;;
46721;SDS011;32455;43.430;23.136;2023-05-10T15:48:02;7.40;;;2.60;;
46721;SDS011;32455;43.430;23.136;2023-05-10T15:50:48;3.70;;;2.60;;
46721;SDS011;32455;43.430;23.136;2023-05-10T15:53:33;7.38;;;2.42;;
46721;SDS011;32455;43.430;23.136;2023-05-10T15:56:20;2.90;;;2.60;;
46721;SDS011;32455;43.430;23.136;2023-05-10T15:59:05;4.05;;;2.70;;
46721;SDS011;32455;43.430;23.136;2023-05-10T16:01:52;3.58;;;2.90;;
46721;SDS011;32455;43.430;23.136;2023-05-10T16:04:37;8.57;;;2.55;;
46721;SDS011;32455;43.430;23.136;2023-05-10T16:07:22;5.75;;;2.88;;
46721;SDS011;32455;43.430;23.136;2023-05-10T16:10:09;5.18;;;2.63;;
46721;SDS011;32455;43.430;23.136;2023-05-10T16:12:55;7.00;;;3.30;;
46721;SDS011;32455;43.430;23.136;2023-05-10T16:15:40;9.82;;;8.52;;
46721;SDS011;32455;43.430;23.136;2023-05-10T16:18:26;10.85;;;7.15;;
46721;SDS011;32455;43.430;23.136;2023-05-10T16:21:11;6.93;;;6.10;;
46721;SDS011;32455;43.430;23.136;2023-05-10T16:23:55;7.00;;;4.85;;
46721;SDS011;32455;43.430;23.136;2023-05-10T16:26:41;4.32;;;3.60;;
46721;SDS011;32455;43.430;23.136;2023-05-10T16:29:27;7.22;;;4.38;;
46721;SDS011;32455;43.430;23.136;2023-05-10T16:32:12;5.38;;;3.35;;